PWSweather.com
Personal Weather Stations
Station Observations
IHTIMAN1
Neighbourhood 1, IhtimanBG 2050

Neighbourhood 1IhtimanBG 2050

Lat: 42.436852, Lon: 23.817921

Elevation: 2066

Station Type: Oregon Scientific WMR968

http://ihtiman-meteo.com

High Low Average
Temperature 65.2°F18.4°C 45.5°F7.5°C 52.3°F11.3°C
Dew Point 53.9°F12.2°C 41.4°F5.2°C 47.3°F8.5°C
Winds 11.5 mph 18.5 kmh Calm Calm 4.0 mph WSW6.4 kmh WSW
Wind Gusts 17.3 mph27.8 kmh -- 6.0 mph9.7 kmh
Humidity 98% 54% 84%
Pressure 29.77 in1008.1 mb 29.68 in1005.1 mb -
Precipitation 0.00 in0.0 mm - -
Hour Temp Dew Point Humidity Winds Wind Gusts Pressure Precip Precip Rate Daily Precip Total
12:00 AM 52.0°F11.1°C 47.7°F8.7°C 85% Calm Calm -- 29.71 in1006.1 mb - 0.00 in0.0 mm 0.00 in0.0 mm
12:10 AM 51.6°F10.9°C 47.6°F8.7°C 86% Calm Calm -- 29.71 in1006.1 mb - 0.00 in0.0 mm 0.00 in0.0 mm
12:20 AM 51.6°F10.9°C 48.2°F9.0°C 88% 3.5 mph SE5.6 kmh SE 5.8 mph9.3 kmh 29.71 in1006.1 mb - 0.00 in0.0 mm 0.00 in0.0 mm
12:30 AM 52.0°F11.1°C 48.8°F9.3°C 89% 2.3 mph SSE3.7 kmh SSE 3.5 mph5.6 kmh 29.71 in1006.1 mb - 0.00 in0.0 mm 0.00 in0.0 mm
12:40 AM 52.0°F11.1°C 49.2°F9.6°C 90% 2.3 mph S3.7 kmh S 3.5 mph5.6 kmh 29.71 in1006.1 mb - 0.00 in0.0 mm 0.00 in0.0 mm
12:50 AM 52.0°F11.1°C 49.5°F9.7°C 91% 3.5 mph SE5.6 kmh SE 3.5 mph5.6 kmh 29.71 in1006.1 mb - 0.00 in0.0 mm 0.00 in0.0 mm
01:00 AM 51.7°F10.9°C 49.5°F9.7°C 92% Calm Calm -- 29.71 in1006.1 mb - 0.00 in0.0 mm 0.00 in0.0 mm
01:10 AM 51.5°F10.8°C 49.2°F9.6°C 92% Calm Calm -- 29.71 in1006.1 mb - 0.00 in0.0 mm 0.00 in0.0 mm
01:20 AM 51.3°F10.7°C 49.0°F9.4°C 92% Calm Calm -- 29.71 in1006.1 mb - 0.00 in0.0 mm 0.00 in0.0 mm
01:30 AM 51.1°F10.6°C 48.8°F9.3°C 92% 2.3 mph WSW3.7 kmh WSW 4.6 mph7.4 kmh 29.71 in1006.1 mb - 0.00 in0.0 mm 0.00 in0.0 mm
01:40 AM 50.5°F10.3°C 48.3°F9.1°C 92% Calm Calm -- 29.71 in1006.1 mb - 0.00 in0.0 mm 0.00 in0.0 mm
01:50 AM 50.2°F10.1°C 48.2°F9.0°C 93% Calm Calm -- 29.71 in1006.1 mb - 0.00 in0.0 mm 0.00 in0.0 mm
02:00 AM 50.2°F10.1°C 48.2°F9.0°C 93% Calm Calm -- 29.71 in1006.1 mb - 0.00 in0.0 mm 0.00 in0.0 mm
02:10 AM 50.4°F10.2°C 48.7°F9.3°C 94% 2.3 mph NNE3.7 kmh NNE 2.3 mph3.7 kmh 29.71 in1006.1 mb - 0.00 in0.0 mm 0.00 in0.0 mm
02:20 AM 50.4°F10.2°C 49.0°F9.4°C 95% Calm Calm -- 29.71 in1006.1 mb - 0.00 in0.0 mm 0.00 in0.0 mm
02:30 AM 50.2°F10.1°C 48.8°F9.3°C 95% Calm Calm -- 29.71 in1006.1 mb - 0.00 in0.0 mm 0.00 in0.0 mm
02:40 AM 49.5°F9.7°C 48.4°F9.1°C 96% Calm Calm -- 29.71 in1006.1 mb - 0.00 in0.0 mm 0.00 in0.0 mm
02:50 AM 48.9°F9.4°C 47.5°F8.6°C 95% Calm Calm -- 29.71 in1006.1 mb - 0.00 in0.0 mm 0.00 in0.0 mm
03:00 AM 48.4°F9.1°C 47.1°F8.4°C 95% Calm Calm -- 29.71 in1006.1 mb - 0.00 in0.0 mm 0.00 in0.0 mm
03:10 AM 48.2°F9.0°C 46.8°F8.2°C 95% Calm Calm -- 29.71 in1006.1 mb - 0.00 in0.0 mm 0.00 in0.0 mm
03:20 AM 48.0°F8.9°C 46.9°F8.3°C 96% Calm Calm -- 29.71 in1006.1 mb - 0.00 in0.0 mm 0.00 in0.0 mm
03:30 AM 47.9°F8.8°C 46.8°F8.2°C 96% Calm Calm -- 29.71 in1006.1 mb - 0.00 in0.0 mm 0.00 in0.0 mm
03:40 AM 47.5°F8.6°C 46.4°F8.0°C 96% Calm Calm -- 29.71 in1006.1 mb - 0.00 in0.0 mm 0.00 in0.0 mm
03:50 AM 47.3°F8.5°C 46.2°F7.9°C 96% Calm Calm -- 29.71 in1006.1 mb - 0.00 in0.0 mm 0.00 in0.0 mm
04:00 AM 47.1°F8.4°C 46.0°F7.8°C 96% Calm Calm -- 29.71 in1006.1 mb - 0.00 in0.0 mm 0.00 in0.0 mm
04:10 AM 46.8°F8.2°C 46.0°F7.8°C 97% Calm Calm -- 29.71 in1006.1 mb - 0.00 in0.0 mm 0.00 in0.0 mm
04:20 AM 46.8°F8.2°C 46.0°F7.8°C 97% Calm Calm -- 29.71 in1006.1 mb - 0.00 in0.0 mm 0.00 in0.0 mm
04:30 AM 46.8°F8.2°C 46.0°F7.8°C 97% Calm Calm -- 29.71 in1006.1 mb - 0.00 in0.0 mm 0.00 in0.0 mm
04:40 AM 46.8°F8.2°C 46.0°F7.8°C 97% Calm Calm -- 29.71 in1006.1 mb - 0.00 in0.0 mm 0.00 in0.0 mm
04:50 AM 46.5°F8.1°C 45.7°F7.6°C 97% Calm Calm 3.5 mph5.6 kmh 29.71 in1006.1 mb - 0.00 in0.0 mm 0.00 in0.0 mm
05:00 AM 45.9°F7.7°C 45.3°F7.4°C 98% Calm Calm -- 29.71 in1006.1 mb - 0.00 in0.0 mm 0.00 in0.0 mm
05:10 AM 45.7°F7.6°C 45.2°F7.3°C 98% Calm Calm -- 29.71 in1006.1 mb - 0.00 in0.0 mm 0.00 in0.0 mm
05:20 AM 45.5°F7.5°C 45.0°F7.2°C 98% Calm Calm -- 29.74 in1007.1 mb - 0.00 in0.0 mm 0.00 in0.0 mm
05:30 AM 45.5°F7.5°C 45.0°F7.2°C 98% Calm Calm -- 29.74 in1007.1 mb - 0.00 in0.0 mm 0.00 in0.0 mm
05:40 AM 45.9°F7.7°C 45.3°F7.4°C 98% Calm Calm -- 29.74 in1007.1 mb - 0.00 in0.0 mm 0.00 in0.0 mm
05:50 AM 46.2°F7.9°C 45.7°F7.6°C 98% Calm Calm -- 29.74 in1007.1 mb - 0.00 in0.0 mm 0.00 in0.0 mm
06:00 AM 46.8°F8.2°C 46.2°F7.9°C 98% Calm Calm -- 29.74 in1007.1 mb - 0.00 in0.0 mm 0.00 in0.0 mm
06:10 AM 47.2°F8.4°C 46.7°F8.2°C 98% 2.3 mph NW3.7 kmh NW 2.3 mph3.7 kmh 29.74 in1007.1 mb - 0.00 in0.0 mm 0.00 in0.0 mm
06:20 AM 47.6°F8.7°C 47.1°F8.4°C 98% Calm Calm -- 29.74 in1007.1 mb - 0.00 in0.0 mm 0.00 in0.0 mm
06:40 AM 48.4°F9.1°C 47.9°F8.8°C 98% Calm Calm -- 29.74 in1007.1 mb - 0.00 in0.0 mm 0.00 in0.0 mm
06:50 AM 49.2°F9.6°C 48.7°F9.3°C 98% Calm Calm -- 29.74 in1007.1 mb - 0.00 in0.0 mm 0.00 in0.0 mm
07:00 AM 49.8°F9.9°C 49.2°F9.6°C 98% 1.2 mph S1.9 kmh S 2.3 mph3.7 kmh 29.74 in1007.1 mb - 0.00 in0.0 mm 0.00 in0.0 mm
07:10 AM 50.8°F10.4°C 50.2°F10.1°C 98% Calm Calm 5.8 mph9.3 kmh 29.74 in1007.1 mb - 0.00 in0.0 mm 0.00 in0.0 mm
07:20 AM 50.8°F10.4°C 50.2°F10.1°C 98% 1.2 mph SSE1.9 kmh SSE 2.3 mph3.7 kmh 29.74 in1007.1 mb - 0.00 in0.0 mm 0.00 in0.0 mm
07:30 AM 50.8°F10.4°C 50.3°F10.2°C 98% Calm Calm -- 29.71 in1006.1 mb - 0.00 in0.0 mm 0.00 in0.0 mm
07:40 AM 50.9°F10.5°C 50.4°F10.2°C 98% 2.3 mph WSW3.7 kmh WSW 3.5 mph5.6 kmh 29.71 in1006.1 mb - 0.00 in0.0 mm 0.00 in0.0 mm
07:50 AM 51.6°F10.9°C 51.0°F10.6°C 98% 2.3 mph WSW3.7 kmh WSW 3.5 mph5.6 kmh 29.74 in1007.1 mb - 0.00 in0.0 mm 0.00 in0.0 mm
08:00 AM 53.2°F11.8°C 52.6°F11.4°C 98% Calm Calm 3.5 mph5.6 kmh 29.71 in1006.1 mb - 0.00 in0.0 mm 0.00 in0.0 mm
08:10 AM 53.8°F12.1°C 52.4°F11.3°C 95% Calm Calm -- 29.71 in1006.1 mb - 0.00 in0.0 mm 0.00 in0.0 mm
08:20 AM 54.0°F12.2°C 52.3°F11.3°C 94% 3.5 mph NW5.6 kmh NW 3.5 mph5.6 kmh 29.74 in1007.1 mb - 0.00 in0.0 mm 0.00 in0.0 mm
08:30 AM 54.4°F12.4°C 52.4°F11.3°C 93% Calm Calm 3.5 mph5.6 kmh 29.74 in1007.1 mb - 0.00 in0.0 mm 0.00 in0.0 mm
08:40 AM 56.2°F13.4°C 53.9°F12.2°C 92% Calm Calm -- 29.74 in1007.1 mb - 0.00 in0.0 mm 0.00 in0.0 mm
08:50 AM 57.6°F14.2°C 53.4°F11.9°C 86% 2.3 mph SE3.7 kmh SE 3.5 mph5.6 kmh 29.74 in1007.1 mb - 0.00 in0.0 mm 0.00 in0.0 mm
09:00 AM 58.8°F14.9°C 53.0°F11.7°C 81% Calm Calm -- 29.71 in1006.1 mb - 0.00 in0.0 mm 0.00 in0.0 mm
09:10 AM 59.0°F15.0°C 52.4°F11.3°C 79% 1.2 mph SSE1.9 kmh SSE 3.5 mph5.6 kmh 29.71 in1006.1 mb - 0.00 in0.0 mm 0.00 in0.0 mm
09:20 AM 59.0°F15.0°C 52.1°F11.2°C 78% 3.5 mph SE5.6 kmh SE 3.5 mph5.6 kmh 29.71 in1006.1 mb - 0.00 in0.0 mm 0.00 in0.0 mm
09:30 AM 58.9°F14.9°C 51.4°F10.8°C 76% 2.3 mph SE3.7 kmh SE 3.5 mph5.6 kmh 29.71 in1006.1 mb - 0.00 in0.0 mm 0.00 in0.0 mm
09:40 AM 61.2°F16.2°C 51.7°F10.9°C 71% 5.8 mph SE9.3 kmh SE 8.1 mph13.0 kmh 29.71 in1006.1 mb - 0.00 in0.0 mm 0.00 in0.0 mm
09:50 AM 61.3°F16.3°C 50.6°F10.3°C 68% 3.5 mph SE5.6 kmh SE 4.6 mph7.4 kmh 29.71 in1006.1 mb - 0.00 in0.0 mm 0.00 in0.0 mm
10:00 AM 61.0°F16.1°C 50.7°F10.4°C 69% 2.3 mph SE3.7 kmh SE 5.8 mph9.3 kmh 29.71 in1006.1 mb - 0.00 in0.0 mm 0.00 in0.0 mm
10:10 AM 61.0°F16.1°C 51.2°F10.7°C 70% 5.8 mph SE9.3 kmh SE 5.8 mph9.3 kmh 29.71 in1006.1 mb - 0.00 in0.0 mm 0.00 in0.0 mm
10:20 AM 61.0°F16.1°C 50.7°F10.4°C 69% 4.6 mph SSE7.4 kmh SSE 6.9 mph11.1 kmh 29.71 in1006.1 mb - 0.00 in0.0 mm 0.00 in0.0 mm
10:30 AM 60.8°F16.0°C 50.1°F10.1°C 68% 4.6 mph SE7.4 kmh SE 8.1 mph13.0 kmh 29.71 in1006.1 mb - 0.00 in0.0 mm 0.00 in0.0 mm
10:40 AM 62.4°F16.9°C 51.3°F10.7°C 67% 3.5 mph ESE5.6 kmh ESE 5.8 mph9.3 kmh 29.71 in1006.1 mb - 0.00 in0.0 mm 0.00 in0.0 mm
10:50 AM 65.2°F18.4°C 50.1°F10.1°C 58% 4.6 mph SE7.4 kmh SE 6.9 mph11.1 kmh 29.71 in1006.1 mb - 0.00 in0.0 mm 0.00 in0.0 mm
11:00 AM 64.1°F17.8°C 47.1°F8.4°C 54% 4.6 mph SSW7.4 kmh SSW 8.1 mph13.0 kmh 29.71 in1006.1 mb - 0.00 in0.0 mm 0.00 in0.0 mm
11:10 AM 58.0°F14.4°C 43.7°F6.5°C 59% 6.9 mph WNW11.1 kmh WNW 8.1 mph13.0 kmh 29.71 in1006.1 mb - 0.00 in0.0 mm 0.00 in0.0 mm
11:20 AM 55.7°F13.2°C 46.8°F8.2°C 72% 6.9 mph W11.1 kmh W 8.1 mph13.0 kmh 29.71 in1006.1 mb - 0.00 in0.0 mm 0.00 in0.0 mm
11:30 AM 54.6°F12.6°C 49.2°F9.6°C 82% 8.1 mph NNW13.0 kmh NNW 12.7 mph20.4 kmh 29.71 in1006.1 mb - 0.00 in0.0 mm 0.00 in0.0 mm
11:40 AM 54.7°F12.6°C 50.9°F10.5°C 87% 5.8 mph NNW9.3 kmh NNW 9.2 mph14.8 kmh 29.71 in1006.1 mb - 0.00 in0.0 mm 0.00 in0.0 mm
11:50 AM 55.2°F12.9°C 52.6°F11.4°C 91% 4.6 mph NW7.4 kmh NW 5.8 mph9.3 kmh 29.71 in1006.1 mb - 0.00 in0.0 mm 0.00 in0.0 mm
12:00 PM 55.8°F13.2°C 53.2°F11.8°C 91% 4.6 mph N7.4 kmh N 8.1 mph13.0 kmh 29.71 in1006.1 mb - 0.00 in0.0 mm 0.00 in0.0 mm
12:10 PM 56.5°F13.6°C 53.9°F12.2°C 91% 6.9 mph N11.1 kmh N 8.1 mph13.0 kmh 29.71 in1006.1 mb - 0.00 in0.0 mm 0.00 in0.0 mm
12:20 PM 57.2°F14.0°C 53.4°F11.9°C 87% 5.8 mph N9.3 kmh N 8.1 mph13.0 kmh 29.71 in1006.1 mb - 0.00 in0.0 mm 0.00 in0.0 mm
12:30 PM 57.7°F14.3°C 52.3°F11.3°C 82% 10.4 mph N16.7 kmh N 17.3 mph27.8 kmh 29.71 in1006.1 mb - 0.00 in0.0 mm 0.00 in0.0 mm
12:40 PM 59.9°F15.5°C 53.7°F12.1°C 80% 9.2 mph 14.8 kmh 11.5 mph18.5 kmh 29.71 in1006.1 mb - 0.00 in0.0 mm 0.00 in0.0 mm
12:50 PM 61.9°F16.6°C 53.1°F11.7°C 73% 8.1 mph N13.0 kmh N 15.0 mph24.1 kmh 29.71 in1006.1 mb - 0.00 in0.0 mm 0.00 in0.0 mm
01:00 PM 61.3°F16.3°C 51.5°F10.8°C 70% 11.5 mph N18.5 kmh N 12.7 mph20.4 kmh 29.68 in1005.1 mb - 0.00 in0.0 mm 0.00 in0.0 mm
01:10 PM 61.5°F16.4°C 50.0°F10.0°C 66% 10.4 mph NNW16.7 kmh NNW 12.7 mph20.4 kmh 29.68 in1005.1 mb - 0.00 in0.0 mm 0.00 in0.0 mm
01:20 PM 63.7°F17.6°C 51.3°F10.7°C 64% 8.1 mph 13.0 kmh 11.5 mph18.5 kmh 29.71 in1006.1 mb - 0.00 in0.0 mm 0.00 in0.0 mm
01:30 PM 63.6°F17.6°C 49.0°F9.4°C 59% 9.2 mph N14.8 kmh N 11.5 mph18.5 kmh 29.71 in1006.1 mb - 0.00 in0.0 mm 0.00 in0.0 mm
01:40 PM 62.1°F16.7°C 47.6°F8.7°C 59% 9.2 mph N14.8 kmh N 12.7 mph20.4 kmh 29.71 in1006.1 mb - 0.00 in0.0 mm 0.00 in0.0 mm
01:50 PM 59.8°F15.4°C 45.9°F7.7°C 60% 11.5 mph N18.5 kmh N 15.0 mph24.1 kmh 29.71 in1006.1 mb - 0.00 in0.0 mm 0.00 in0.0 mm
02:00 PM 58.8°F14.9°C 46.2°F7.9°C 63% 10.4 mph N16.7 kmh N 15.0 mph24.1 kmh 29.71 in1006.1 mb - 0.00 in0.0 mm 0.00 in0.0 mm
02:10 PM 58.5°F14.7°C 45.9°F7.7°C 63% 8.1 mph NW13.0 kmh NW 15.0 mph24.1 kmh 29.71 in1006.1 mb - 0.00 in0.0 mm 0.00 in0.0 mm
02:20 PM 57.3°F14.1°C 44.4°F6.9°C 62% 9.2 mph NW14.8 kmh NW 15.0 mph24.1 kmh 29.71 in1006.1 mb - 0.00 in0.0 mm 0.00 in0.0 mm
02:30 PM 56.7°F13.7°C 43.8°F6.6°C 62% 9.2 mph N14.8 kmh N 15.0 mph24.1 kmh 29.68 in1005.1 mb - 0.00 in0.0 mm 0.00 in0.0 mm
02:40 PM 56.1°F13.4°C 44.1°F6.7°C 64% 8.1 mph N13.0 kmh N 16.1 mph25.9 kmh 29.68 in1005.1 mb - 0.00 in0.0 mm 0.00 in0.0 mm
02:50 PM 55.0°F12.8°C 44.2°F6.8°C 67% 8.1 mph NW13.0 kmh NW 12.7 mph20.4 kmh 29.71 in1006.1 mb - 0.00 in0.0 mm 0.00 in0.0 mm
03:00 PM 53.4°F11.9°C 44.6°F7.0°C 72% 4.6 mph N7.4 kmh N 8.1 mph13.0 kmh 29.74 in1007.1 mb - 0.00 in0.0 mm 0.00 in0.0 mm
03:10 PM 52.2°F11.2°C 46.2°F7.9°C 80% 5.8 mph NNW9.3 kmh NNW 5.8 mph9.3 kmh 29.74 in1007.1 mb - 0.00 in0.0 mm 0.00 in0.0 mm
03:20 PM 51.7°F10.9°C 47.7°F8.7°C 86% 4.6 mph N7.4 kmh N 8.1 mph13.0 kmh 29.74 in1007.1 mb - 0.00 in0.0 mm 0.00 in0.0 mm
03:30 PM 52.4°F11.3°C 49.6°F9.8°C 90% 5.8 mph NNW9.3 kmh NNW 8.1 mph13.0 kmh 29.71 in1006.1 mb - 0.00 in0.0 mm 0.00 in0.0 mm
03:40 PM 53.4°F11.9°C 50.6°F10.3°C 90% 4.6 mph NW7.4 kmh NW 8.1 mph13.0 kmh 29.71 in1006.1 mb - 0.00 in0.0 mm 0.00 in0.0 mm
03:50 PM 53.8°F12.1°C 49.7°F9.8°C 86% 5.8 mph NW9.3 kmh NW 6.9 mph11.1 kmh 29.71 in1006.1 mb - 0.00 in0.0 mm 0.00 in0.0 mm
04:00 PM 55.2°F12.9°C 50.8°F10.4°C 85% 6.9 mph WNW11.1 kmh WNW 8.1 mph13.0 kmh 29.68 in1005.1 mb - 0.00 in0.0 mm 0.00 in0.0 mm
04:10 PM 55.0°F12.8°C 50.2°F10.1°C 84% 6.9 mph NNW11.1 kmh NNW 11.5 mph18.5 kmh 29.68 in1005.1 mb - 0.00 in0.0 mm 0.00 in0.0 mm
04:20 PM 55.2°F12.9°C 49.4°F9.7°C 81% 6.9 mph NW11.1 kmh NW 9.2 mph14.8 kmh 29.68 in1005.1 mb - 0.00 in0.0 mm 0.00 in0.0 mm
04:30 PM 55.8°F13.2°C 49.7°F9.8°C 80% 4.6 mph NW7.4 kmh NW 5.8 mph9.3 kmh 29.68 in1005.1 mb - 0.00 in0.0 mm 0.00 in0.0 mm
04:40 PM 55.3°F12.9°C 48.9°F9.4°C 79% 4.6 mph NW7.4 kmh NW 5.8 mph9.3 kmh 29.68 in1005.1 mb - 0.00 in0.0 mm 0.00 in0.0 mm
04:50 PM 54.9°F12.7°C 47.2°F8.4°C 75% 5.8 mph NW9.3 kmh NW 8.1 mph13.0 kmh 29.71 in1006.1 mb - 0.00 in0.0 mm 0.00 in0.0 mm
05:00 PM 54.5°F12.5°C 46.7°F8.2°C 75% 6.9 mph NW11.1 kmh NW 10.4 mph16.7 kmh 29.71 in1006.1 mb - 0.00 in0.0 mm 0.00 in0.0 mm
05:10 PM 54.4°F12.4°C 46.6°F8.1°C 75% 6.9 mph NNW11.1 kmh NNW 8.1 mph13.0 kmh 29.71 in1006.1 mb - 0.00 in0.0 mm 0.00 in0.0 mm
05:20 PM 54.1°F12.3°C 46.7°F8.2°C 76% 5.8 mph N9.3 kmh N 8.1 mph13.0 kmh 29.71 in1006.1 mb - 0.00 in0.0 mm 0.00 in0.0 mm
05:30 PM 54.0°F12.2°C 46.9°F8.3°C 77% 5.8 mph NW9.3 kmh NW 8.1 mph13.0 kmh 29.71 in1006.1 mb - 0.00 in0.0 mm 0.00 in0.0 mm
05:40 PM 54.0°F12.2°C 46.6°F8.1°C 76% 4.6 mph NNW7.4 kmh NNW 5.8 mph9.3 kmh 29.71 in1006.1 mb - 0.00 in0.0 mm 0.00 in0.0 mm
05:50 PM 54.1°F12.3°C 46.7°F8.2°C 76% 3.5 mph WNW5.6 kmh WNW 8.1 mph13.0 kmh 29.71 in1006.1 mb - 0.00 in0.0 mm 0.00 in0.0 mm
06:00 PM 53.8°F12.1°C 47.4°F8.6°C 79% 3.5 mph W5.6 kmh W 4.6 mph7.4 kmh 29.71 in1006.1 mb - 0.00 in0.0 mm 0.00 in0.0 mm
06:10 PM 53.8°F12.1°C 48.1°F8.9°C 81% 5.8 mph NW9.3 kmh NW 9.2 mph14.8 kmh 29.71 in1006.1 mb - 0.00 in0.0 mm 0.00 in0.0 mm
06:20 PM 53.6°F12.0°C 48.2°F9.0°C 82% 6.9 mph NNW11.1 kmh NNW 10.4 mph16.7 kmh 29.71 in1006.1 mb - 0.00 in0.0 mm 0.00 in0.0 mm
06:30 PM 53.7°F12.1°C 48.0°F8.9°C 81% 9.2 mph NNW14.8 kmh NNW 12.7 mph20.4 kmh 29.71 in1006.1 mb - 0.00 in0.0 mm 0.00 in0.0 mm
06:40 PM 53.5°F11.9°C 47.1°F8.4°C 79% 9.2 mph N14.8 kmh N 17.3 mph27.8 kmh 29.71 in1006.1 mb - 0.00 in0.0 mm 0.00 in0.0 mm
06:50 PM 52.3°F11.3°C 44.6°F7.0°C 75% 8.1 mph N13.0 kmh N 12.7 mph20.4 kmh 29.71 in1006.1 mb - 0.00 in0.0 mm 0.00 in0.0 mm
07:00 PM 50.9°F10.5°C 43.6°F6.4°C 76% 9.2 mph NNW14.8 kmh NNW 12.7 mph20.4 kmh 29.71 in1006.1 mb - 0.00 in0.0 mm 0.00 in0.0 mm
07:10 PM 50.4°F10.2°C 43.8°F6.6°C 78% 8.1 mph N13.0 kmh N 12.7 mph20.4 kmh 29.71 in1006.1 mb - 0.00 in0.0 mm 0.00 in0.0 mm
07:20 PM 50.1°F10.1°C 43.9°F6.6°C 79% 6.9 mph N11.1 kmh N 8.1 mph13.0 kmh 29.74 in1007.1 mb - 0.00 in0.0 mm 0.00 in0.0 mm
07:30 PM 49.4°F9.7°C 43.1°F6.2°C 79% 6.9 mph NW11.1 kmh NW 9.2 mph14.8 kmh 29.74 in1007.1 mb - 0.00 in0.0 mm 0.00 in0.0 mm
07:40 PM 48.9°F9.4°C 43.3°F6.3°C 81% 6.9 mph NE11.1 kmh NE 11.5 mph18.5 kmh 29.74 in1007.1 mb - 0.00 in0.0 mm 0.00 in0.0 mm
07:50 PM 48.6°F9.2°C 43.3°F6.3°C 82% 6.9 mph NNW11.1 kmh NNW 11.5 mph18.5 kmh 29.74 in1007.1 mb - 0.00 in0.0 mm 0.00 in0.0 mm
08:00 PM 48.2°F9.0°C 43.3°F6.3°C 83% 4.6 mph NNW7.4 kmh NNW 9.2 mph14.8 kmh 29.74 in1007.1 mb - 0.00 in0.0 mm 0.00 in0.0 mm
08:10 PM 47.8°F8.8°C 43.2°F6.2°C 84% 5.8 mph N9.3 kmh N 10.4 mph16.7 kmh 29.74 in1007.1 mb - 0.00 in0.0 mm 0.00 in0.0 mm
08:20 PM 47.5°F8.6°C 42.9°F6.1°C 84% 6.9 mph N11.1 kmh N 8.1 mph13.0 kmh 29.74 in1007.1 mb - 0.00 in0.0 mm 0.00 in0.0 mm
08:30 PM 47.3°F8.5°C 42.7°F5.9°C 84% 4.6 mph NNW7.4 kmh NNW 5.8 mph9.3 kmh 29.77 in1008.1 mb - 0.00 in0.0 mm 0.00 in0.0 mm
08:40 PM 47.1°F8.4°C 42.2°F5.7°C 83% 5.8 mph N9.3 kmh N 8.1 mph13.0 kmh 29.77 in1008.1 mb - 0.00 in0.0 mm 0.00 in0.0 mm
08:50 PM 46.9°F8.3°C 42.0°F5.6°C 83% 4.6 mph N7.4 kmh N 8.1 mph13.0 kmh 29.77 in1008.1 mb - 0.00 in0.0 mm 0.00 in0.0 mm
09:00 PM 46.9°F8.3°C 42.0°F5.6°C 83% 3.5 mph N5.6 kmh N 5.8 mph9.3 kmh 29.77 in1008.1 mb - 0.00 in0.0 mm 0.00 in0.0 mm
09:10 PM 46.8°F8.2°C 41.6°F5.3°C 82% 5.8 mph N9.3 kmh N 8.1 mph13.0 kmh 29.77 in1008.1 mb - 0.00 in0.0 mm 0.00 in0.0 mm
09:20 PM 46.6°F8.1°C 41.4°F5.2°C 82% 3.5 mph NNW5.6 kmh NNW 3.5 mph5.6 kmh 29.74 in1007.1 mb - 0.00 in0.0 mm 0.00 in0.0 mm
09:30 PM 46.6°F8.1°C 41.7°F5.4°C 83% Calm Calm 4.6 mph7.4 kmh 29.77 in1008.1 mb - 0.00 in0.0 mm 0.00 in0.0 mm
09:40 PM 46.4°F8.0°C 41.5°F5.3°C 83% 3.5 mph N5.6 kmh N 3.5 mph5.6 kmh 29.77 in1008.1 mb - 0.00 in0.0 mm 0.00 in0.0 mm
09:50 PM 46.4°F8.0°C 41.8°F5.4°C 84% 3.5 mph N5.6 kmh N 4.6 mph7.4 kmh 29.77 in1008.1 mb - 0.00 in0.0 mm 0.00 in0.0 mm
10:00 PM 46.4°F8.0°C 41.8°F5.4°C 84% 4.6 mph N7.4 kmh N 5.8 mph9.3 kmh 29.77 in1008.1 mb - 0.00 in0.0 mm 0.00 in0.0 mm
10:10 PM 46.4°F8.0°C 42.1°F5.6°C 85% 4.6 mph N7.4 kmh N 5.8 mph9.3 kmh 29.77 in1008.1 mb - 0.00 in0.0 mm 0.00 in0.0 mm
10:20 PM 46.6°F8.1°C 42.3°F5.7°C 85% 4.6 mph N7.4 kmh N 5.8 mph9.3 kmh 29.77 in1008.1 mb - 0.00 in0.0 mm 0.00 in0.0 mm
10:30 PM 46.5°F8.1°C 42.2°F5.7°C 85% 3.5 mph NNW5.6 kmh NNW 3.5 mph5.6 kmh 29.77 in1008.1 mb - 0.00 in0.0 mm 0.00 in0.0 mm
10:40 PM 46.4°F8.0°C 42.1°F5.6°C 85% 3.5 mph NNW5.6 kmh NNW 3.5 mph5.6 kmh 29.77 in1008.1 mb - 0.00 in0.0 mm 0.00 in0.0 mm
10:50 PM 46.2°F7.9°C 42.3°F5.7°C 86% 3.5 mph NW5.6 kmh NW 4.6 mph7.4 kmh 29.77 in1008.1 mb - 0.00 in0.0 mm 0.00 in0.0 mm
11:00 PM 46.6°F8.1°C 42.6°F5.9°C 86% 4.6 mph NW7.4 kmh NW 5.8 mph9.3 kmh 29.77 in1008.1 mb - 0.00 in0.0 mm 0.00 in0.0 mm
11:10 PM 46.8°F8.2°C 42.8°F6.0°C 86% 4.6 mph N7.4 kmh N 8.1 mph13.0 kmh 29.77 in1008.1 mb - 0.00 in0.0 mm 0.00 in0.0 mm
11:20 PM 46.8°F8.2°C 42.8°F6.0°C 86% 6.9 mph NNW11.1 kmh NNW 12.7 mph20.4 kmh 29.77 in1008.1 mb - 0.00 in0.0 mm 0.00 in0.0 mm
11:30 PM 46.8°F8.2°C 42.8°F6.0°C 86% 6.9 mph N11.1 kmh N 9.2 mph14.8 kmh 29.77 in1008.1 mb - 0.00 in0.0 mm 0.00 in0.0 mm
11:40 PM 46.6°F8.1°C 42.6°F5.9°C 86% 5.8 mph NNW9.3 kmh NNW 13.8 mph22.2 kmh 29.77 in1008.1 mb - 0.00 in0.0 mm 0.00 in0.0 mm
11:50 PM 46.6°F8.1°C 42.3°F5.7°C 85% 5.8 mph NNW9.3 kmh NNW 8.1 mph13.0 kmh 29.77 in1008.1 mb - 0.00 in0.0 mm 0.00 in0.0 mm